sensor_id;sensor_type;location;lat;lon;timestamp;P1;P2;P0
49914;PMS5003;35806;47.958;13.158;2024-01-15T00:01:00;13;11;
49914;PMS5003;35806;47.958;13.158;2024-01-15T00:03:27;23;20;
49914;PMS5003;35806;47.958;13.158;2024-01-15T00:05:54;13;11;
49914;PMS5003;35806;47.958;13.158;2024-01-15T00:08:21;14;11;
49914;PMS5003;35806;47.958;13.158;2024-01-15T00:10:48;9;9;
49914;PMS5003;35806;47.958;13.158;2024-01-15T00:13:15;7;7;
49914;PMS5003;35806;47.958;13.158;2024-01-15T00:15:42;11;10;
49914;PMS5003;35806;47.958;13.158;2024-01-15T00:18:09;11;10;
49914;PMS5003;35806;47.958;13.158;2024-01-15T00:20:36;10;10;
49914;PMS5003;35806;47.958;13.158;2024-01-15T00:23:04;12;8;
49914;PMS5003;35806;47.958;13.158;2024-01-15T00:25:31;11;11;
49914;PMS5003;35806;47.958;13.158;2024-01-15T00:27:59;12;9;
49914;PMS5003;35806;47.958;13.158;2024-01-15T00:30:26;18;15;
49914;PMS5003;35806;47.958;13.158;2024-01-15T00:32:53;11;10;
49914;PMS5003;35806;47.958;13.158;2024-01-15T00:35:21;13;10;
49914;PMS5003;35806;47.958;13.158;2024-01-15T00:37:48;16;15;
49914;PMS5003;35806;47.958;13.158;2024-01-15T00:40:16;10;7;
49914;PMS5003;35806;47.958;13.158;2024-01-15T00:42:43;20;20;
49914;PMS5003;35806;47.958;13.158;2024-01-15T00:43:03;20;20;
49914;PMS5003;35806;47.958;13.158;2024-01-15T00:45:30;24;22;
49914;PMS5003;35806;47.958;13.158;2024-01-15T00:47:57;7;7;
49914;PMS5003;35806;47.958;13.158;2024-01-15T00:50:24;12;12;
49914;PMS5003;35806;47.958;13.158;2024-01-15T00:52:51;12;12;
49914;PMS5003;35806;47.958;13.158;2024-01-15T00:55:18;11;10;
49914;PMS5003;35806;47.958;13.158;2024-01-15T00:57:45;13;9;
49914;PMS5003;35806;47.958;13.158;2024-01-15T01:00:13;9;9;
49914;PMS5003;35806;47.958;13.158;2024-01-15T01:02:41;17;14;
49914;PMS5003;35806;47.958;13.158;2024-01-15T01:05:09;13;12;
49914;PMS5003;35806;47.958;13.158;2024-01-15T01:07:37;18;17;
49914;PMS5003;35806;47.958;13.158;2024-01-15T01:10:05;19;16;
49914;PMS5003;35806;47.958;13.158;2024-01-15T01:12:32;13;11;
49914;PMS5003;35806;47.958;13.158;2024-01-15T01:14:59;19;16;
49914;PMS5003;35806;47.958;13.158;2024-01-15T01:17:27;18;17;
49914;PMS5003;35806;47.958;13.158;2024-01-15T01:19:55;19;16;
49914;PMS5003;35806;47.958;13.158;2024-01-15T01:22:23;17;14;
49914;PMS5003;35806;47.958;13.158;2024-01-15T01:24:50;17;16;
49914;PMS5003;35806;47.958;13.158;2024-01-15T01:27:17;17;15;
49914;PMS5003;35806;47.958;13.158;2024-01-15T01:29:44;20;15;
49914;PMS5003;35806;47.958;13.158;2024-01-15T01:32:12;20;20;
49914;PMS5003;35806;47.958;13.158;2024-01-15T01:34:39;16;12;
49914;PMS5003;35806;47.958;13.158;2024-01-15T01:37:08;17;15;
49914;PMS5003;35806;47.958;13.158;2024-01-15T01:39:35;17;16;
49914;PMS5003;35806;47.958;13.158;2024-01-15T01:42:02;19;14;
49914;PMS5003;35806;47.958;13.158;2024-01-15T01:44:30;15;15;
49914;PMS5003;35806;47.958;13.158;2024-01-15T01:46:57;15;15;
49914;PMS5003;35806;47.958;13.158;2024-01-15T01:49:25;17;16;
49914;PMS5003;35806;47.958;13.158;2024-01-15T01:51:54;16;16;
49914;PMS5003;35806;47.958;13.158;2024-01-15T01:54:23;17;16;
49914;PMS5003;35806;47.958;13.158;2024-01-15T01:56:52;21;17;
49914;PMS5003;35806;47.958;13.158;2024-01-15T01:59:19;15;14;
49914;PMS5003;35806;47.958;13.158;2024-01-15T02:01:48;17;17;
49914;PMS5003;35806;47.958;13.158;2024-01-15T02:04:17;29;27;
49914;PMS5003;35806;47.958;13.158;2024-01-15T02:06:44;22;19;
49914;PMS5003;35806;47.958;13.158;2024-01-15T02:09:11;25;22;
49914;PMS5003;35806;47.958;13.158;2024-01-15T02:11:39;22;20;
49914;PMS5003;35806;47.958;13.158;2024-01-15T02:14:06;25;21;
49914;PMS5003;35806;47.958;13.158;2024-01-15T02:16:33;24;22;
49914;PMS5003;35806;47.958;13.158;2024-01-15T02:19:00;26;25;
49914;PMS5003;35806;47.958;13.158;2024-01-15T02:21:28;22;19;
49914;PMS5003;35806;47.958;13.158;2024-01-15T02:23:55;27;25;
49914;PMS5003;35806;47.958;13.158;2024-01-15T02:26:23;27;22;
49914;PMS5003;35806;47.958;13.158;2024-01-15T02:28:51;29;25;
49914;PMS5003;35806;47.958;13.158;2024-01-15T02:31:18;26;22;
49914;PMS5003;35806;47.958;13.158;2024-01-15T02:33:46;28;26;
49914;PMS5003;35806;47.958;13.158;2024-01-15T02:36:16;31;26;
49914;PMS5003;35806;47.958;13.158;2024-01-15T02:38:43;35;29;
49914;PMS5003;35806;47.958;13.158;2024-01-15T02:41:10;33;26;
49914;PMS5003;35806;47.958;13.158;2024-01-15T02:43:38;26;23;
49914;PMS5003;35806;47.958;13.158;2024-01-15T02:46:06;30;25;
49914;PMS5003;35806;47.958;13.158;2024-01-15T02:48:33;27;26;
49914;PMS5003;35806;47.958;13.158;2024-01-15T02:51:00;35;26;
49914;PMS5003;35806;47.958;13.158;2024-01-15T02:53:27;39;32;
49914;PMS5003;35806;47.958;13.158;2024-01-15T02:55:55;31;29;
49914;PMS5003;35806;47.958;13.158;2024-01-15T02:58:22;41;30;
49914;PMS5003;35806;47.958;13.158;2024-01-15T03:00:49;31;28;
49914;PMS5003;35806;47.958;13.158;2024-01-15T03:03:16;35;27;
49914;PMS5003;35806;47.958;13.158;2024-01-15T03:05:44;23;23;
49914;PMS5003;35806;47.958;13.158;2024-01-15T03:08:12;25;24;
49914;PMS5003;35806;47.958;13.158;2024-01-15T03:10:39;26;25;
49914;PMS5003;35806;47.958;13.158;2024-01-15T03:13:06;23;19;
49914;PMS5003;35806;47.958;13.158;2024-01-15T03:15:33;26;17;
49914;PMS5003;35806;47.958;13.158;2024-01-15T03:18:01;19;19;
49914;PMS5003;35806;47.958;13.158;2024-01-15T03:20:28;21;17;
49914;PMS5003;35806;47.958;13.158;2024-01-15T03:22:55;22;20;
49914;PMS5003;35806;47.958;13.158;2024-01-15T03:25:22;18;18;
49914;PMS5003;35806;47.958;13.158;2024-01-15T03:27:50;22;17;
49914;PMS5003;35806;47.958;13.158;2024-01-15T03:30:17;28;22;
49914;PMS5003;35806;47.958;13.158;2024-01-15T03:32:45;16;13;
49914;PMS5003;35806;47.958;13.158;2024-01-15T03:35:12;18;16;
49914;PMS5003;35806;47.958;13.158;2024-01-15T03:37:39;17;17;
49914;PMS5003;35806;47.958;13.158;2024-01-15T03:40:07;23;22;
49914;PMS5003;35806;47.958;13.158;2024-01-15T03:42:35;18;16;
49914;PMS5003;35806;47.958;13.158;2024-01-15T03:45:03;22;15;
49914;PMS5003;35806;47.958;13.158;2024-01-15T03:47:31;19;16;
49914;PMS5003;35806;47.958;13.158;2024-01-15T03:49:58;17;14;
49914;PMS5003;35806;47.958;13.158;2024-01-15T03:52:25;18;15;
49914;PMS5003;35806;47.958;13.158;2024-01-15T03:54:53;21;15;
49914;PMS5003;35806;47.958;13.158;2024-01-15T03:57:20;21;15;
49914;PMS5003;35806;47.958;13.158;2024-01-15T03:59:48;19;14;
49914;PMS5003;35806;47.958;13.158;2024-01-15T04:02:15;16;14;
49914;PMS5003;35806;47.958;13.158;2024-01-15T04:04:42;22;17;
49914;PMS5003;35806;47.958;13.158;2024-01-15T04:07:09;72;59;
49914;PMS5003;35806;47.958;13.158;2024-01-15T04:09:37;56;50;
49914;PMS5003;35806;47.958;13.158;2024-01-15T04:12:05;22;21;
49914;PMS5003;35806;47.958;13.158;2024-01-15T04:14:32;23;20;
49914;PMS5003;35806;47.958;13.158;2024-01-15T04:16:59;31;25;
49914;PMS5003;35806;47.958;13.158;2024-01-15T04:19:27;19;18;
49914;PMS5003;35806;47.958;13.158;2024-01-15T04:21:54;23;18;
49914;PMS5003;35806;47.958;13.158;2024-01-15T04:24:21;17;11;
49914;PMS5003;35806;47.958;13.158;2024-01-15T04:26:48;18;16;
49914;PMS5003;35806;47.958;13.158;2024-01-15T04:29:15;17;17;
49914;PMS5003;35806;47.958;13.158;2024-01-15T04:31:43;18;16;
49914;PMS5003;35806;47.958;13.158;2024-01-15T04:34:10;30;22;
49914;PMS5003;35806;47.958;13.158;2024-01-15T04:36:38;23;17;
49914;PMS5003;35806;47.958;13.158;2024-01-15T04:39:06;19;17;
49914;PMS5003;35806;47.958;13.158;2024-01-15T04:41:33;22;17;
49914;PMS5003;35806;47.958;13.158;2024-01-15T04:44:00;21;19;
49914;PMS5003;35806;47.958;13.158;2024-01-15T04:46:29;22;16;
49914;PMS5003;35806;47.958;13.158;2024-01-15T04:48:56;22;17;
49914;PMS5003;35806;47.958;13.158;2024-01-15T04:51:23;21;17;
49914;PMS5003;35806;47.958;13.158;2024-01-15T04:53:50;16;16;
49914;PMS5003;35806;47.958;13.158;2024-01-15T04:56:18;16;16;
49914;PMS5003;35806;47.958;13.158;2024-01-15T04:58:45;23;18;
49914;PMS5003;35806;47.958;13.158;2024-01-15T05:01:12;24;18;
49914;PMS5003;35806;47.958;13.158;2024-01-15T05:03:39;28;23;
49914;PMS5003;35806;47.958;13.158;2024-01-15T05:06:06;24;22;
49914;PMS5003;35806;47.958;13.158;2024-01-15T05:08:34;20;16;
49914;PMS5003;35806;47.958;13.158;2024-01-15T05:11:02;23;17;
49914;PMS5003;35806;47.958;13.158;2024-01-15T05:13:30;23;19;
49914;PMS5003;35806;47.958;13.158;2024-01-15T05:15:57;22;19;
49914;PMS5003;35806;47.958;13.158;2024-01-15T05:18:24;24;18;
49914;PMS5003;35806;47.958;13.158;2024-01-15T05:20:51;20;17;
49914;PMS5003;35806;47.958;13.158;2024-01-15T05:23:19;24;20;
49914;PMS5003;35806;47.958;13.158;2024-01-15T05:25:46;29;24;
49914;PMS5003;35806;47.958;13.158;2024-01-15T05:28:13;23;22;
49914;PMS5003;35806;47.958;13.158;2024-01-15T05:30:41;25;17;
49914;PMS5003;35806;47.958;13.158;2024-01-15T05:33:08;13;13;
49914;PMS5003;35806;47.958;13.158;2024-01-15T05:35:35;22;18;
49914;PMS5003;35806;47.958;13.158;2024-01-15T05:38:02;26;20;
49914;PMS5003;35806;47.958;13.158;2024-01-15T05:40:30;20;17;
49914;PMS5003;35806;47.958;13.158;2024-01-15T05:42:58;20;17;
49914;PMS5003;35806;47.958;13.158;2024-01-15T05:45:26;27;23;
49914;PMS5003;35806;47.958;13.158;2024-01-15T05:47:53;20;19;
49914;PMS5003;35806;47.958;13.158;2024-01-15T05:50:20;21;18;
49914;PMS5003;35806;47.958;13.158;2024-01-15T05:52:48;20;16;
49914;PMS5003;35806;47.958;13.158;2024-01-15T05:55:15;24;17;
49914;PMS5003;35806;47.958;13.158;2024-01-15T05:57:43;19;13;
49914;PMS5003;35806;47.958;13.158;2024-01-15T06:00:10;19;17;
49914;PMS5003;35806;47.958;13.158;2024-01-15T06:02:38;18;16;
49914;PMS5003;35806;47.958;13.158;2024-01-15T06:05:06;24;20;
49914;PMS5003;35806;47.958;13.158;2024-01-15T06:07:34;20;17;
49914;PMS5003;35806;47.958;13.158;2024-01-15T06:10:02;23;21;
49914;PMS5003;35806;47.958;13.158;2024-01-15T06:12:29;19;12;
49914;PMS5003;35806;47.958;13.158;2024-01-15T06:14:56;18;16;
49914;PMS5003;35806;47.958;13.158;2024-01-15T06:17:23;17;15;
49914;PMS5003;35806;47.958;13.158;2024-01-15T06:19:50;17;13;
49914;PMS5003;35806;47.958;13.158;2024-01-15T06:22:18;16;13;
49914;PMS5003;35806;47.958;13.158;2024-01-15T06:24:45;14;13;
49914;PMS5003;35806;47.958;13.158;2024-01-15T06:27:11;18;12;
49914;PMS5003;35806;47.958;13.158;2024-01-15T06:29:44;13;13;
49914;PMS5003;35806;47.958;13.158;2024-01-15T06:32:12;13;13;
49914;PMS5003;35806;47.958;13.158;2024-01-15T06:34:39;18;13;
49914;PMS5003;35806;47.958;13.158;2024-01-15T06:37:07;12;12;
49914;PMS5003;35806;47.958;13.158;2024-01-15T06:39:35;18;17;
49914;PMS5003;35806;47.958;13.158;2024-01-15T06:42:02;12;10;
49914;PMS5003;35806;47.958;13.158;2024-01-15T06:44:30;16;13;
49914;PMS5003;35806;47.958;13.158;2024-01-15T06:46:57;17;13;
49914;PMS5003;35806;47.958;13.158;2024-01-15T06:49:25;11;10;
49914;PMS5003;35806;47.958;13.158;2024-01-15T06:51:52;19;13;
49914;PMS5003;35806;47.958;13.158;2024-01-15T06:54:19;11;11;
49914;PMS5003;35806;47.958;13.158;2024-01-15T06:56:46;13;11;
49914;PMS5003;35806;47.958;13.158;2024-01-15T06:59:13;18;15;
49914;PMS5003;35806;47.958;13.158;2024-01-15T07:01:40;11;11;
49914;PMS5003;35806;47.958;13.158;2024-01-15T07:04:07;10;9;
49914;PMS5003;35806;47.958;13.158;2024-01-15T07:06:35;13;12;
49914;PMS5003;35806;47.958;13.158;2024-01-15T07:09:02;15;13;
49914;PMS5003;35806;47.958;13.158;2024-01-15T07:11:29;16;11;
49914;PMS5003;35806;47.958;13.158;2024-01-15T07:13:56;23;13;
49914;PMS5003;35806;47.958;13.158;2024-01-15T07:16:23;16;10;
49914;PMS5003;35806;47.958;13.158;2024-01-15T07:18:50;17;13;
49914;PMS5003;35806;47.958;13.158;2024-01-15T07:21:17;20;17;
49914;PMS5003;35806;47.958;13.158;2024-01-15T07:23:44;16;12;
49914;PMS5003;35806;47.958;13.158;2024-01-15T07:26:11;12;12;
49914;PMS5003;35806;47.958;13.158;2024-01-15T07:28:38;16;14;
49914;PMS5003;35806;47.958;13.158;2024-01-15T07:31:06;15;13;
49914;PMS5003;35806;47.958;13.158;2024-01-15T07:33:33;10;10;
49914;PMS5003;35806;47.958;13.158;2024-01-15T07:36:00;13;13;
49914;PMS5003;35806;47.958;13.158;2024-01-15T07:38:27;11;10;
49914;PMS5003;35806;47.958;13.158;2024-01-15T07:40:54;13;10;
49914;PMS5003;35806;47.958;13.158;2024-01-15T07:43:21;10;10;
49914;PMS5003;35806;47.958;13.158;2024-01-15T07:45:48;12;11;
49914;PMS5003;35806;47.958;13.158;2024-01-15T07:48:15;13;11;
49914;PMS5003;35806;47.958;13.158;2024-01-15T07:50:43;14;11;
49914;PMS5003;35806;47.958;13.158;2024-01-15T07:53:10;18;12;
49914;PMS5003;35806;47.958;13.158;2024-01-15T07:55:37;18;13;
49914;PMS5003;35806;47.958;13.158;2024-01-15T07:58:04;11;11;
49914;PMS5003;35806;47.958;13.158;2024-01-15T08:00:41;14;11;
49914;PMS5003;35806;47.958;13.158;2024-01-15T08:03:09;15;15;
49914;PMS5003;35806;47.958;13.158;2024-01-15T08:05:42;19;13;
49914;PMS5003;35806;47.958;13.158;2024-01-15T08:08:10;29;22;
49914;PMS5003;35806;47.958;13.158;2024-01-15T08:10:37;16;15;
49914;PMS5003;35806;47.958;13.158;2024-01-15T08:13:04;13;13;
49914;PMS5003;35806;47.958;13.158;2024-01-15T08:15:32;13;11;
49914;PMS5003;35806;47.958;13.158;2024-01-15T08:17:59;13;12;
49914;PMS5003;35806;47.958;13.158;2024-01-15T08:20:26;12;10;
49914;PMS5003;35806;47.958;13.158;2024-01-15T08:22:53;15;12;
49914;PMS5003;35806;47.958;13.158;2024-01-15T08:25:21;11;11;
49914;PMS5003;35806;47.958;13.158;2024-01-15T08:27:48;12;11;
49914;PMS5003;35806;47.958;13.158;2024-01-15T08:30:16;16;16;
49914;PMS5003;35806;47.958;13.158;2024-01-15T08:32:43;19;17;
49914;PMS5003;35806;47.958;13.158;2024-01-15T08:35:10;15;12;
49914;PMS5003;35806;47.958;13.158;2024-01-15T08:37:38;15;13;
49914;PMS5003;35806;47.958;13.158;2024-01-15T08:40:06;13;13;
49914;PMS5003;35806;47.958;13.158;2024-01-15T08:42:34;19;11;
49914;PMS5003;35806;47.958;13.158;2024-01-15T08:45:02;22;17;
49914;PMS5003;35806;47.958;13.158;2024-01-15T08:47:30;23;18;
49914;PMS5003;35806;47.958;13.158;2024-01-15T08:49:57;21;16;
49914;PMS5003;35806;47.958;13.158;2024-01-15T08:52:24;17;15;
49914;PMS5003;35806;47.958;13.158;2024-01-15T08:54:51;18;17;
49914;PMS5003;35806;47.958;13.158;2024-01-15T08:57:18;16;14;
49914;PMS5003;35806;47.958;13.158;2024-01-15T08:59:45;16;11;
49914;PMS5003;35806;47.958;13.158;2024-01-15T09:02:13;21;17;
49914;PMS5003;35806;47.958;13.158;2024-01-15T09:04:40;18;15;
49914;PMS5003;35806;47.958;13.158;2024-01-15T09:07:08;13;12;
49914;PMS5003;35806;47.958;13.158;2024-01-15T09:09:36;14;14;
49914;PMS5003;35806;47.958;13.158;2024-01-15T09:12:04;14;14;
49914;PMS5003;35806;47.958;13.158;2024-01-15T09:14:32;12;10;
49914;PMS5003;35806;47.958;13.158;2024-01-15T09:17:00;16;14;
49914;PMS5003;35806;47.958;13.158;2024-01-15T09:19:26;12;11;
49914;PMS5003;35806;47.958;13.158;2024-01-15T09:21:54;15;14;
49914;PMS5003;35806;47.958;13.158;2024-01-15T09:24:21;16;12;
49914;PMS5003;35806;47.958;13.158;2024-01-15T09:26:48;21;17;
49914;PMS5003;35806;47.958;13.158;2024-01-15T09:29:15;17;14;
49914;PMS5003;35806;47.958;13.158;2024-01-15T09:31:42;18;16;
49914;PMS5003;35806;47.958;13.158;2024-01-15T09:34:10;19;17;
49914;PMS5003;35806;47.958;13.158;2024-01-15T09:36:39;14;12;
49914;PMS5003;35806;47.958;13.158;2024-01-15T09:39:06;21;16;
49914;PMS5003;35806;47.958;13.158;2024-01-15T09:41:34;19;17;
49914;PMS5003;35806;47.958;13.158;2024-01-15T09:44:02;17;14;
49914;PMS5003;35806;47.958;13.158;2024-01-15T09:46:30;23;20;
49914;PMS5003;35806;47.958;13.158;2024-01-15T09:48:58;18;15;
49914;PMS5003;35806;47.958;13.158;2024-01-15T09:51:26;23;21;
49914;PMS5003;35806;47.958;13.158;2024-01-15T09:53:54;21;19;
49914;PMS5003;35806;47.958;13.158;2024-01-15T09:56:22;21;19;
49914;PMS5003;35806;47.958;13.158;2024-01-15T09:58:49;25;22;
49914;PMS5003;35806;47.958;13.158;2024-01-15T10:01:17;18;16;
49914;PMS5003;35806;47.958;13.158;2024-01-15T10:03:46;16;15;
49914;PMS5003;35806;47.958;13.158;2024-01-15T10:06:14;16;14;
49914;PMS5003;35806;47.958;13.158;2024-01-15T10:08:43;14;12;
49914;PMS5003;35806;47.958;13.158;2024-01-15T10:11:15;12;12;
49914;PMS5003;35806;47.958;13.158;2024-01-15T10:13:43;12;11;
49914;PMS5003;35806;47.958;13.158;2024-01-15T10:16:11;11;10;
49914;PMS5003;35806;47.958;13.158;2024-01-15T10:18:38;11;10;
49914;PMS5003;35806;47.958;13.158;2024-01-15T10:21:06;16;11;
49914;PMS5003;35806;47.958;13.158;2024-01-15T10:23:34;22;16;
49914;PMS5003;35806;47.958;13.158;2024-01-15T10:26:01;11;9;
49914;PMS5003;35806;47.958;13.158;2024-01-15T10:28:29;9;8;
49914;PMS5003;35806;47.958;13.158;2024-01-15T10:30:57;15;9;
49914;PMS5003;35806;47.958;13.158;2024-01-15T10:33:25;18;16;
49914;PMS5003;35806;47.958;13.158;2024-01-15T10:35:53;13;11;
49914;PMS5003;35806;47.958;13.158;2024-01-15T10:38:22;9;9;
49914;PMS5003;35806;47.958;13.158;2024-01-15T10:40:51;9;9;
49914;PMS5003;35806;47.958;13.158;2024-01-15T10:43:19;19;17;
49914;PMS5003;35806;47.958;13.158;2024-01-15T10:45:47;10;10;
49914;PMS5003;35806;47.958;13.158;2024-01-15T10:48:16;13;10;
49914;PMS5003;35806;47.958;13.158;2024-01-15T10:50:45;9;9;
49914;PMS5003;35806;47.958;13.158;2024-01-15T10:53:13;9;9;
49914;PMS5003;35806;47.958;13.158;2024-01-15T10:55:43;9;8;
49914;PMS5003;35806;47.958;13.158;2024-01-15T10:58:13;11;11;
49914;PMS5003;35806;47.958;13.158;2024-01-15T11:00:42;11;11;
49914;PMS5003;35806;47.958;13.158;2024-01-15T11:03:10;12;11;
49914;PMS5003;35806;47.958;13.158;2024-01-15T11:05:38;9;9;
49914;PMS5003;35806;47.958;13.158;2024-01-15T11:08:08;11;10;
49914;PMS5003;35806;47.958;13.158;2024-01-15T11:10:38;11;10;
49914;PMS5003;35806;47.958;13.158;2024-01-15T11:13:07;15;10;
49914;PMS5003;35806;47.958;13.158;2024-01-15T11:15:54;12;9;
49914;PMS5003;35806;47.958;13.158;2024-01-15T11:18:22;13;12;
49914;PMS5003;35806;47.958;13.158;2024-01-15T11:21:22;9;8;
49914;PMS5003;35806;47.958;13.158;2024-01-15T11:23:51;9;8;
49914;PMS5003;35806;47.958;13.158;2024-01-15T11:26:28;14;10;
49914;PMS5003;35806;47.958;13.158;2024-01-15T11:28:56;13;10;
49914;PMS5003;35806;47.958;13.158;2024-01-15T11:31:27;11;9;
49914;PMS5003;35806;47.958;13.158;2024-01-15T11:33:54;10;9;
49914;PMS5003;35806;47.958;13.158;2024-01-15T11:36:21;10;8;
49914;PMS5003;35806;47.958;13.158;2024-01-15T11:39:43;11;10;
49914;PMS5003;35806;47.958;13.158;2024-01-15T11:42:11;6;5;
49914;PMS5003;35806;47.958;13.158;2024-01-15T11:44:39;16;12;
49914;PMS5003;35806;47.958;13.158;2024-01-15T11:47:07;8;6;
49914;PMS5003;35806;47.958;13.158;2024-01-15T11:49:45;8;5;
49914;PMS5003;35806;47.958;13.158;2024-01-15T11:52:25;10;8;
49914;PMS5003;35806;47.958;13.158;2024-01-15T11:54:59;11;11;
49914;PMS5003;35806;47.958;13.158;2024-01-15T11:57:34;9;9;
49914;PMS5003;35806;47.958;13.158;2024-01-15T12:00:08;11;6;
49914;PMS5003;35806;47.958;13.158;2024-01-15T12:02:37;12;8;
49914;PMS5003;35806;47.958;13.158;2024-01-15T12:05:05;9;9;
49914;PMS5003;35806;47.958;13.158;2024-01-15T12:07:33;8;8;
49914;PMS5003;35806;47.958;13.158;2024-01-15T12:10:01;15;11;
49914;PMS5003;35806;47.958;13.158;2024-01-15T12:12:37;8;6;
49914;PMS5003;35806;47.958;13.158;2024-01-15T12:15:14;6;4;
49914;PMS5003;35806;47.958;13.158;2024-01-15T12:17:43;12;8;
49914;PMS5003;35806;47.958;13.158;2024-01-15T12:20:11;6;6;
49914;PMS5003;35806;47.958;13.158;2024-01-15T12:22:39;9;7;
49914;PMS5003;35806;47.958;13.158;2024-01-15T12:25:07;8;8;
49914;PMS5003;35806;47.958;13.158;2024-01-15T12:27:35;11;8;
49914;PMS5003;35806;47.958;13.158;2024-01-15T12:30:03;7;5;
49914;PMS5003;35806;47.958;13.158;2024-01-15T12:32:31;8;7;
49914;PMS5003;35806;47.958;13.158;2024-01-15T12:35:03;5;5;
49914;PMS5003;35806;47.958;13.158;2024-01-15T12:37:32;6;6;
49914;PMS5003;35806;47.958;13.158;2024-01-15T12:40:02;5;5;
49914;PMS5003;35806;47.958;13.158;2024-01-15T12:42:31;10;8;
49914;PMS5003;35806;47.958;13.158;2024-01-15T12:44:59;8;6;
49914;PMS5003;35806;47.958;13.158;2024-01-15T12:47:27;8;8;
49914;PMS5003;35806;47.958;13.158;2024-01-15T12:49:55;9;5;
49914;PMS5003;35806;47.958;13.158;2024-01-15T12:52:24;10;8;
49914;PMS5003;35806;47.958;13.158;2024-01-15T12:54:58;8;7;
49914;PMS5003;35806;47.958;13.158;2024-01-15T12:57:25;8;8;
49914;PMS5003;35806;47.958;13.158;2024-01-15T12:59:54;6;5;
49914;PMS5003;35806;47.958;13.158;2024-01-15T13:02:21;8;8;
49914;PMS5003;35806;47.958;13.158;2024-01-15T13:04:49;9;9;
49914;PMS5003;35806;47.958;13.158;2024-01-15T13:07:17;10;9;
49914;PMS5003;35806;47.958;13.158;2024-01-15T13:09:45;11;10;
49914;PMS5003;35806;47.958;13.158;2024-01-15T13:12:13;12;8;
49914;PMS5003;35806;47.958;13.158;2024-01-15T13:14:39;10;6;
49914;PMS5003;35806;47.958;13.158;2024-01-15T13:17:06;10;9;
49914;PMS5003;35806;47.958;13.158;2024-01-15T13:19:34;10;10;
49914;PMS5003;35806;47.958;13.158;2024-01-15T13:22:02;8;8;
49914;PMS5003;35806;47.958;13.158;2024-01-15T13:24:31;11;9;
49914;PMS5003;35806;47.958;13.158;2024-01-15T13:26:59;14;11;
49914;PMS5003;35806;47.958;13.158;2024-01-15T13:29:27;10;10;
49914;PMS5003;35806;47.958;13.158;2024-01-15T13:31:55;10;9;
49914;PMS5003;35806;47.958;13.158;2024-01-15T13:34:23;10;10;
49914;PMS5003;35806;47.958;13.158;2024-01-15T13:36:50;13;9;
49914;PMS5003;35806;47.958;13.158;2024-01-15T13:39:18;12;9;
49914;PMS5003;35806;47.958;13.158;2024-01-15T13:41:46;13;9;
49914;PMS5003;35806;47.958;13.158;2024-01-15T13:44:13;10;8;
49914;PMS5003;35806;47.958;13.158;2024-01-15T13:46:40;9;9;
49914;PMS5003;35806;47.958;13.158;2024-01-15T13:49:08;11;10;
49914;PMS5003;35806;47.958;13.158;2024-01-15T13:51:35;12;11;
49914;PMS5003;35806;47.958;13.158;2024-01-15T13:54:03;10;7;
49914;PMS5003;35806;47.958;13.158;2024-01-15T13:56:31;6;6;
49914;PMS5003;35806;47.958;13.158;2024-01-15T13:58:58;9;9;
49914;PMS5003;35806;47.958;13.158;2024-01-15T14:01:26;15;13;
49914;PMS5003;35806;47.958;13.158;2024-01-15T14:03:54;7;7;
49914;PMS5003;35806;47.958;13.158;2024-01-15T14:06:21;14;12;
49914;PMS5003;35806;47.958;13.158;2024-01-15T14:08:49;11;9;
49914;PMS5003;35806;47.958;13.158;2024-01-15T14:11:16;13;10;
49914;PMS5003;35806;47.958;13.158;2024-01-15T14:13:44;14;10;
49914;PMS5003;35806;47.958;13.158;2024-01-15T14:16:11;5;4;
49914;PMS5003;35806;47.958;13.158;2024-01-15T14:18:39;6;5;
49914;PMS5003;35806;47.958;13.158;2024-01-15T14:21:07;5;5;
49914;PMS5003;35806;47.958;13.158;2024-01-15T14:23:34;9;7;
49914;PMS5003;35806;47.958;13.158;2024-01-15T14:26:01;6;6;
49914;PMS5003;35806;47.958;13.158;2024-01-15T14:28:29;9;5;
49914;PMS5003;35806;47.958;13.158;2024-01-15T14:30:57;3;3;
49914;PMS5003;35806;47.958;13.158;2024-01-15T14:33:25;4;3;
49914;PMS5003;35806;47.958;13.158;2024-01-15T14:35:52;10;5;
49914;PMS5003;35806;47.958;13.158;2024-01-15T14:38:20;5;4;
49914;PMS5003;35806;47.958;13.158;2024-01-15T14:40:48;5;5;
49914;PMS5003;35806;47.958;13.158;2024-01-15T14:43:15;7;7;
49914;PMS5003;35806;47.958;13.158;2024-01-15T14:45:43;6;6;
49914;PMS5003;35806;47.958;13.158;2024-01-15T14:48:10;10;7;
49914;PMS5003;35806;47.958;13.158;2024-01-15T14:50:38;10;8;
49914;PMS5003;35806;47.958;13.158;2024-01-15T14:53:06;10;10;
49914;PMS5003;35806;47.958;13.158;2024-01-15T14:55:33;7;6;
49914;PMS5003;35806;47.958;13.158;2024-01-15T14:55:54;7;6;
49914;PMS5003;35806;47.958;13.158;2024-01-15T14:58:22;8;7;
49914;PMS5003;35806;47.958;13.158;2024-01-15T15:00:52;7;6;
49914;PMS5003;35806;47.958;13.158;2024-01-15T15:03:20;8;7;
49914;PMS5003;35806;47.958;13.158;2024-01-15T15:05:48;5;4;
49914;PMS5003;35806;47.958;13.158;2024-01-15T15:08:15;6;6;
49914;PMS5003;35806;47.958;13.158;2024-01-15T15:10:43;6;6;
49914;PMS5003;35806;47.958;13.158;2024-01-15T15:13:11;5;5;
49914;PMS5003;35806;47.958;13.158;2024-01-15T15:15:39;7;6;
49914;PMS5003;35806;47.958;13.158;2024-01-15T15:18:06;6;6;
49914;PMS5003;35806;47.958;13.158;2024-01-15T15:20:34;15;15;
49914;PMS5003;35806;47.958;13.158;2024-01-15T15:23:02;14;14;
49914;PMS5003;35806;47.958;13.158;2024-01-15T15:25:30;11;11;
49914;PMS5003;35806;47.958;13.158;2024-01-15T15:27:57;5;5;
49914;PMS5003;35806;47.958;13.158;2024-01-15T15:30:25;8;8;
49914;PMS5003;35806;47.958;13.158;2024-01-15T15:32:53;19;15;
49914;PMS5003;35806;47.958;13.158;2024-01-15T15:35:21;12;11;
49914;PMS5003;35806;47.958;13.158;2024-01-15T15:37:48;7;7;
49914;PMS5003;35806;47.958;13.158;2024-01-15T15:40:16;10;10;
49914;PMS5003;35806;47.958;13.158;2024-01-15T15:42:44;7;7;
49914;PMS5003;35806;47.958;13.158;2024-01-15T15:43:05;7;7;
49914;PMS5003;35806;47.958;13.158;2024-01-15T15:45:32;4;4;
49914;PMS5003;35806;47.958;13.158;2024-01-15T15:47:59;5;5;
49914;PMS5003;35806;47.958;13.158;2024-01-15T15:50:27;4;4;
49914;PMS5003;35806;47.958;13.158;2024-01-15T15:52:55;3;3;
49914;PMS5003;35806;47.958;13.158;2024-01-15T15:55:23;6;4;
49914;PMS5003;35806;47.958;13.158;2024-01-15T15:57:51;5;4;
49914;PMS5003;35806;47.958;13.158;2024-01-15T16:00:19;6;5;
49914;PMS5003;35806;47.958;13.158;2024-01-15T16:02:46;5;5;
49914;PMS5003;35806;47.958;13.158;2024-01-15T16:05:14;8;5;
49914;PMS5003;35806;47.958;13.158;2024-01-15T16:07:41;8;4;